sensor_id;sensor_type;location;lat;lon;timestamp;temperature;humidity
33827;DHT22;20128;45.582;5.298;2023-02-22T00:01:31;11.50;75.40
33827;DHT22;20128;45.582;5.298;2023-02-22T00:04:02;11.50;75.50
33827;DHT22;20128;45.582;5.298;2023-02-22T00:06:28;11.50;75.40
33827;DHT22;20128;45.582;5.298;2023-02-22T00:08:55;11.40;75.20
33827;DHT22;20128;45.582;5.298;2023-02-22T00:11:21;11.40;75.50
33827;DHT22;20128;45.582;5.298;2023-02-22T00:13:47;11.40;75.50
33827;DHT22;20128;45.582;5.298;2023-02-22T00:16:17;11.40;75.60
33827;DHT22;20128;45.582;5.298;2023-02-22T00:18:43;11.30;75.80
33827;DHT22;20128;45.582;5.298;2023-02-22T00:21:11;11.30;76.20
33827;DHT22;20128;45.582;5.298;2023-02-22T00:23:40;11.30;75.90
33827;DHT22;20128;45.582;5.298;2023-02-22T00:26:11;11.30;76.20
33827;DHT22;20128;45.582;5.298;2023-02-22T00:28:38;11.30;76.00
33827;DHT22;20128;45.582;5.298;2023-02-22T00:31:05;11.20;75.90
33827;DHT22;20128;45.582;5.298;2023-02-22T00:33:32;11.20;76.00
33827;DHT22;20128;45.582;5.298;2023-02-22T00:35:58;11.20;76.10
33827;DHT22;20128;45.582;5.298;2023-02-22T00:38:24;11.20;76.10
33827;DHT22;20128;45.582;5.298;2023-02-22T00:40:49;11.20;76.00
33827;DHT22;20128;45.582;5.298;2023-02-22T00:43:15;11.10;76.30
33827;DHT22;20128;45.582;5.298;2023-02-22T00:45:41;11.10;76.30
33827;DHT22;20128;45.582;5.298;2023-02-22T00:48:07;11.00;76.50
33827;DHT22;20128;45.582;5.298;2023-02-22T00:50:33;11.10;76.40
33827;DHT22;20128;45.582;5.298;2023-02-22T00:53:01;11.10;76.40
33827;DHT22;20128;45.582;5.298;2023-02-22T00:55:33;11.00;76.60
33827;DHT22;20128;45.582;5.298;2023-02-22T00:57:59;11.00;76.50
33827;DHT22;20128;45.582;5.298;2023-02-22T01:00:32;11.10;76.40
33827;DHT22;20128;45.582;5.298;2023-02-22T01:02:58;11.10;76.20
33827;DHT22;20128;45.582;5.298;2023-02-22T01:05:26;11.10;76.20
33827;DHT22;20128;45.582;5.298;2023-02-22T01:07:53;11.10;76.20
33827;DHT22;20128;45.582;5.298;2023-02-22T01:10:21;11.10;76.00
33827;DHT22;20128;45.582;5.298;2023-02-22T01:12:48;11.10;76.00
33827;DHT22;20128;45.582;5.298;2023-02-22T01:15:15;11.00;76.10
33827;DHT22;20128;45.582;5.298;2023-02-22T01:17:41;11.00;76.10
33827;DHT22;20128;45.582;5.298;2023-02-22T01:20:09;11.00;76.30
33827;DHT22;20128;45.582;5.298;2023-02-22T01:22:41;11.00;76.50
33827;DHT22;20128;45.582;5.298;2023-02-22T01:25:08;11.00;76.70
33827;DHT22;20128;45.582;5.298;2023-02-22T01:27:34;11.00;76.80
33827;DHT22;20128;45.582;5.298;2023-02-22T01:30:00;11.00;77.20
33827;DHT22;20128;45.582;5.298;2023-02-22T01:32:26;11.00;77.30
33827;DHT22;20128;45.582;5.298;2023-02-22T01:34:53;11.00;77.50
33827;DHT22;20128;45.582;5.298;2023-02-22T01:37:19;11.00;77.50
33827;DHT22;20128;45.582;5.298;2023-02-22T01:39:44;11.00;77.50
33827;DHT22;20128;45.582;5.298;2023-02-22T01:42:11;11.00;77.70
33827;DHT22;20128;45.582;5.298;2023-02-22T01:44:38;11.00;77.80
33827;DHT22;20128;45.582;5.298;2023-02-22T01:47:06;11.00;77.90
33827;DHT22;20128;45.582;5.298;2023-02-22T01:49:47;11.00;77.90
33827;DHT22;20128;45.582;5.298;2023-02-22T01:52:17;11.00;77.80
33827;DHT22;20128;45.582;5.298;2023-02-22T01:54:49;11.00;77.90
33827;DHT22;20128;45.582;5.298;2023-02-22T01:57:19;11.00;78.00
33827;DHT22;20128;45.582;5.298;2023-02-22T01:59:50;11.00;78.10
33827;DHT22;20128;45.582;5.298;2023-02-22T02:02:17;10.90;78.10
33827;DHT22;20128;45.582;5.298;2023-02-22T02:04:44;10.90;78.10
33827;DHT22;20128;45.582;5.298;2023-02-22T02:07:12;11.00;78.10
33827;DHT22;20128;45.582;5.298;2023-02-22T02:09:58;10.90;78.00
33827;DHT22;20128;45.582;5.298;2023-02-22T02:12:26;10.90;78.10
33827;DHT22;20128;45.582;5.298;2023-02-22T02:14:53;10.90;78.10
33827;DHT22;20128;45.582;5.298;2023-02-22T02:17:38;10.90;77.70
33827;DHT22;20128;45.582;5.298;2023-02-22T02:34:25;10.80;77.20
33827;DHT22;20128;45.582;5.298;2023-02-22T02:37:04;10.70;77.00
33827;DHT22;20128;45.582;5.298;2023-02-22T02:42:04;10.70;77.30
33827;DHT22;20128;45.582;5.298;2023-02-22T02:44:36;10.70;77.40
33827;DHT22;20128;45.582;5.298;2023-02-22T02:47:16;10.60;77.50
33827;DHT22;20128;45.582;5.298;2023-02-22T02:50:17;10.60;77.60
33827;DHT22;20128;45.582;5.298;2023-02-22T02:52:44;10.60;77.70
33827;DHT22;20128;45.582;5.298;2023-02-22T02:55:11;10.60;77.70
33827;DHT22;20128;45.582;5.298;2023-02-22T02:57:37;10.50;77.80
33827;DHT22;20128;45.582;5.298;2023-02-22T03:00:04;10.40;78.20
33827;DHT22;20128;45.582;5.298;2023-02-22T03:06:04;10.50;78.70
33827;DHT22;20128;45.582;5.298;2023-02-22T03:11:33;10.40;78.30
33827;DHT22;20128;45.582;5.298;2023-02-22T03:14:25;10.40;78.50
33827;DHT22;20128;45.582;5.298;2023-02-22T03:19:44;10.40;78.40
33827;DHT22;20128;45.582;5.298;2023-02-22T03:22:23;10.40;78.20
33827;DHT22;20128;45.582;5.298;2023-02-22T03:25:07;10.40;78.00
33827;DHT22;20128;45.582;5.298;2023-02-22T03:27:42;10.40;78.30
33827;DHT22;20128;45.582;5.298;2023-02-22T03:30:35;10.30;78.10
33827;DHT22;20128;45.582;5.298;2023-02-22T03:33:10;10.30;78.30
33827;DHT22;20128;45.582;5.298;2023-02-22T03:35:46;10.20;78.40
33827;DHT22;20128;45.582;5.298;2023-02-22T03:38:15;10.20;78.30
33827;DHT22;20128;45.582;5.298;2023-02-22T03:40:44;10.20;78.30
33827;DHT22;20128;45.582;5.298;2023-02-22T03:43:17;10.20;78.30
33827;DHT22;20128;45.582;5.298;2023-02-22T03:45:46;10.20;78.10
33827;DHT22;20128;45.582;5.298;2023-02-22T03:48:30;10.10;78.60
33827;DHT22;20128;45.582;5.298;2023-02-22T03:51:00;10.10;78.60
33827;DHT22;20128;45.582;5.298;2023-02-22T03:53:29;10.10;78.70
33827;DHT22;20128;45.582;5.298;2023-02-22T03:55:57;10.10;78.90
33827;DHT22;20128;45.582;5.298;2023-02-22T03:58:25;10.10;78.70
33827;DHT22;20128;45.582;5.298;2023-02-22T04:00:55;10.10;78.50
33827;DHT22;20128;45.582;5.298;2023-02-22T04:03:22;10.10;78.70
33827;DHT22;20128;45.582;5.298;2023-02-22T04:05:48;10.10;78.80
33827;DHT22;20128;45.582;5.298;2023-02-22T04:08:15;10.10;78.60
33827;DHT22;20128;45.582;5.298;2023-02-22T04:10:41;10.00;78.90
33827;DHT22;20128;45.582;5.298;2023-02-22T04:13:06;10.00;79.00
33827;DHT22;20128;45.582;5.298;2023-02-22T04:15:32;9.90;79.20
33827;DHT22;20128;45.582;5.298;2023-02-22T04:17:58;9.90;79.30
33827;DHT22;20128;45.582;5.298;2023-02-22T04:20:24;9.90;79.30
33827;DHT22;20128;45.582;5.298;2023-02-22T04:22:54;9.90;79.30
33827;DHT22;20128;45.582;5.298;2023-02-22T04:25:21;9.90;79.00
33827;DHT22;20128;45.582;5.298;2023-02-22T04:27:47;9.90;79.00
33827;DHT22;20128;45.582;5.298;2023-02-22T04:30:15;9.90;79.30
33827;DHT22;20128;45.582;5.298;2023-02-22T04:32:41;9.90;79.50
33827;DHT22;20128;45.582;5.298;2023-02-22T04:35:07;9.90;79.30
33827;DHT22;20128;45.582;5.298;2023-02-22T04:37:33;9.90;79.30
33827;DHT22;20128;45.582;5.298;2023-02-22T04:40:00;9.90;79.20
33827;DHT22;20128;45.582;5.298;2023-02-22T04:42:26;9.90;79.00
33827;DHT22;20128;45.582;5.298;2023-02-22T04:44:52;9.90;79.00
33827;DHT22;20128;45.582;5.298;2023-02-22T04:47:18;9.90;79.20
33827;DHT22;20128;45.582;5.298;2023-02-22T04:49:44;9.80;79.60
33827;DHT22;20128;45.582;5.298;2023-02-22T04:52:10;9.70;79.70
33827;DHT22;20128;45.582;5.298;2023-02-22T04:54:36;9.70;80.00
33827;DHT22;20128;45.582;5.298;2023-02-22T04:57:02;9.80;80.10
33827;DHT22;20128;45.582;5.298;2023-02-22T04:59:27;9.80;80.00
33827;DHT22;20128;45.582;5.298;2023-02-22T05:01:53;9.80;80.30
33827;DHT22;20128;45.582;5.298;2023-02-22T05:04:19;9.80;79.80
33827;DHT22;20128;45.582;5.298;2023-02-22T05:06:46;9.80;80.00
33827;DHT22;20128;45.582;5.298;2023-02-22T05:09:12;9.80;80.10
33827;DHT22;20128;45.582;5.298;2023-02-22T05:11:38;9.80;80.10
33827;DHT22;20128;45.582;5.298;2023-02-22T05:14:03;9.70;80.10
33827;DHT22;20128;45.582;5.298;2023-02-22T05:16:29;9.70;80.30
33827;DHT22;20128;45.582;5.298;2023-02-22T05:18:55;9.70;80.00
33827;DHT22;20128;45.582;5.298;2023-02-22T05:21:20;9.80;80.00
33827;DHT22;20128;45.582;5.298;2023-02-22T05:23:46;9.70;79.70
33827;DHT22;20128;45.582;5.298;2023-02-22T05:26:12;9.70;79.90
33827;DHT22;20128;45.582;5.298;2023-02-22T05:28:38;9.70;80.10
33827;DHT22;20128;45.582;5.298;2023-02-22T05:31:03;9.50;80.30
33827;DHT22;20128;45.582;5.298;2023-02-22T05:33:29;9.60;80.40
33827;DHT22;20128;45.582;5.298;2023-02-22T05:35:55;9.60;80.50
33827;DHT22;20128;45.582;5.298;2023-02-22T05:38:21;9.60;80.70
33827;DHT22;20128;45.582;5.298;2023-02-22T05:40:47;9.60;80.40
33827;DHT22;20128;45.582;5.298;2023-02-22T05:43:13;9.60;80.50
33827;DHT22;20128;45.582;5.298;2023-02-22T05:45:40;9.60;80.50
33827;DHT22;20128;45.582;5.298;2023-02-22T05:48:06;9.60;80.30
33827;DHT22;20128;45.582;5.298;2023-02-22T05:50:33;9.70;80.30
33827;DHT22;20128;45.582;5.298;2023-02-22T05:52:58;9.60;80.30
33827;DHT22;20128;45.582;5.298;2023-02-22T05:55:24;9.70;80.50
33827;DHT22;20128;45.582;5.298;2023-02-22T05:57:51;9.70;80.40
33827;DHT22;20128;45.582;5.298;2023-02-22T06:00:23;9.70;80.40
33827;DHT22;20128;45.582;5.298;2023-02-22T06:03:01;9.70;80.40
33827;DHT22;20128;45.582;5.298;2023-02-22T06:05:27;9.60;80.50
33827;DHT22;20128;45.582;5.298;2023-02-22T06:07:54;9.70;80.50
33827;DHT22;20128;45.582;5.298;2023-02-22T06:10:20;9.70;80.40
33827;DHT22;20128;45.582;5.298;2023-02-22T06:12:47;9.70;80.60
33827;DHT22;20128;45.582;5.298;2023-02-22T06:15:14;9.60;80.60
33827;DHT22;20128;45.582;5.298;2023-02-22T06:17:40;9.60;80.80
33827;DHT22;20128;45.582;5.298;2023-02-22T06:20:11;9.60;80.80
33827;DHT22;20128;45.582;5.298;2023-02-22T06:22:37;9.60;80.90
33827;DHT22;20128;45.582;5.298;2023-02-22T06:25:06;9.60;81.00
33827;DHT22;20128;45.582;5.298;2023-02-22T06:27:32;9.60;81.40
33827;DHT22;20128;45.582;5.298;2023-02-22T06:29:59;9.60;81.60
33827;DHT22;20128;45.582;5.298;2023-02-22T06:32:25;9.60;81.70
33827;DHT22;20128;45.582;5.298;2023-02-22T06:34:51;9.60;81.80
33827;DHT22;20128;45.582;5.298;2023-02-22T06:37:17;9.60;82.10
33827;DHT22;20128;45.582;5.298;2023-02-22T06:39:42;9.60;82.10
33827;DHT22;20128;45.582;5.298;2023-02-22T06:42:08;9.60;82.30
33827;DHT22;20128;45.582;5.298;2023-02-22T06:44:33;9.60;82.60
33827;DHT22;20128;45.582;5.298;2023-02-22T06:46:59;9.60;82.70
33827;DHT22;20128;45.582;5.298;2023-02-22T06:49:26;9.60;83.00
33827;DHT22;20128;45.582;5.298;2023-02-22T06:51:52;9.60;83.30
33827;DHT22;20128;45.582;5.298;2023-02-22T06:54:19;9.60;83.20
33827;DHT22;20128;45.582;5.298;2023-02-22T06:56:44;9.60;83.30
33827;DHT22;20128;45.582;5.298;2023-02-22T06:59:10;9.50;83.50
33827;DHT22;20128;45.582;5.298;2023-02-22T07:01:38;9.50;83.90
33827;DHT22;20128;45.582;5.298;2023-02-22T07:04:04;9.60;83.90
33827;DHT22;20128;45.582;5.298;2023-02-22T07:06:30;9.60;83.80
33827;DHT22;20128;45.582;5.298;2023-02-22T07:08:55;9.60;83.90
33827;DHT22;20128;45.582;5.298;2023-02-22T07:11:21;9.60;84.00
33827;DHT22;20128;45.582;5.298;2023-02-22T07:13:47;9.60;84.00
33827;DHT22;20128;45.582;5.298;2023-02-22T07:16:13;9.60;84.10
33827;DHT22;20128;45.582;5.298;2023-02-22T07:18:38;9.70;84.40
33827;DHT22;20128;45.582;5.298;2023-02-22T07:21:04;9.80;84.20
33827;DHT22;20128;45.582;5.298;2023-02-22T07:23:30;10.00;84.10
33827;DHT22;20128;45.582;5.298;2023-02-22T07:25:59;10.20;83.80
33827;DHT22;20128;45.582;5.298;2023-02-22T07:28:25;10.20;83.20
33827;DHT22;20128;45.582;5.298;2023-02-22T07:30:51;10.20;83.10
33827;DHT22;20128;45.582;5.298;2023-02-22T07:33:17;10.20;83.40
33827;DHT22;20128;45.582;5.298;2023-02-22T07:35:45;10.20;83.40
33827;DHT22;20128;45.582;5.298;2023-02-22T07:38:11;10.20;83.20
33827;DHT22;20128;45.582;5.298;2023-02-22T07:40:38;10.20;83.40
33827;DHT22;20128;45.582;5.298;2023-02-22T07:45:45;10.30;83.80
33827;DHT22;20128;45.582;5.298;2023-02-22T07:48:12;10.30;84.10
33827;DHT22;20128;45.582;5.298;2023-02-22T07:50:38;10.50;84.20
33827;DHT22;20128;45.582;5.298;2023-02-22T07:53:10;10.50;84.10
33827;DHT22;20128;45.582;5.298;2023-02-22T07:55:36;10.70;84.20
33827;DHT22;20128;45.582;5.298;2023-02-22T07:58:06;10.80;84.30
33827;DHT22;20128;45.582;5.298;2023-02-22T08:00:37;10.90;84.10
33827;DHT22;20128;45.582;5.298;2023-02-22T08:03:06;11.10;84.00
33827;DHT22;20128;45.582;5.298;2023-02-22T08:05:34;11.20;83.80
33827;DHT22;20128;45.582;5.298;2023-02-22T08:07:59;11.30;83.60
33827;DHT22;20128;45.582;5.298;2023-02-22T08:10:26;11.30;83.00
33827;DHT22;20128;45.582;5.298;2023-02-22T08:12:53;11.20;83.00
33827;DHT22;20128;45.582;5.298;2023-02-22T08:15:25;11.20;83.10
33827;DHT22;20128;45.582;5.298;2023-02-22T08:17:53;11.20;83.00
33827;DHT22;20128;45.582;5.298;2023-02-22T08:20:20;11.20;83.10
33827;DHT22;20128;45.582;5.298;2023-02-22T08:22:46;11.20;83.20
33827;DHT22;20128;45.582;5.298;2023-02-22T08:25:13;11.30;83.20
33827;DHT22;20128;45.582;5.298;2023-02-22T08:27:40;11.40;83.30
33827;DHT22;20128;45.582;5.298;2023-02-22T08:30:07;11.40;83.10
33827;DHT22;20128;45.582;5.298;2023-02-22T08:32:33;11.50;83.20
33827;DHT22;20128;45.582;5.298;2023-02-22T08:35:01;11.60;82.80
33827;DHT22;20128;45.582;5.298;2023-02-22T08:37:27;11.60;82.60
33827;DHT22;20128;45.582;5.298;2023-02-22T08:39:53;11.70;82.60
33827;DHT22;20128;45.582;5.298;2023-02-22T08:42:20;11.80;82.40
33827;DHT22;20128;45.582;5.298;2023-02-22T08:44:46;11.80;82.20
33827;DHT22;20128;45.582;5.298;2023-02-22T08:47:11;11.80;82.10
33827;DHT22;20128;45.582;5.298;2023-02-22T08:49:37;11.90;82.30
33827;DHT22;20128;45.582;5.298;2023-02-22T08:52:03;11.90;82.10
33827;DHT22;20128;45.582;5.298;2023-02-22T08:54:29;12.00;82.10
33827;DHT22;20128;45.582;5.298;2023-02-22T08:56:54;11.90;81.80
33827;DHT22;20128;45.582;5.298;2023-02-22T08:59:20;11.80;82.00
33827;DHT22;20128;45.582;5.298;2023-02-22T09:01:45;11.80;82.40
33827;DHT22;20128;45.582;5.298;2023-02-22T09:04:11;11.80;82.40
33827;DHT22;20128;45.582;5.298;2023-02-22T09:06:39;11.90;82.50
33827;DHT22;20128;45.582;5.298;2023-02-22T09:09:05;11.90;82.60
33827;DHT22;20128;45.582;5.298;2023-02-22T09:11:31;12.00;82.70
33827;DHT22;20128;45.582;5.298;2023-02-22T09:13:57;12.00;82.60
33827;DHT22;20128;45.582;5.298;2023-02-22T09:16:23;12.00;82.90
33827;DHT22;20128;45.582;5.298;2023-02-22T09:18:49;12.00;82.70
33827;DHT22;20128;45.582;5.298;2023-02-22T09:21:15;12.00;82.70
33827;DHT22;20128;45.582;5.298;2023-02-22T09:23:40;12.00;83.10
33827;DHT22;20128;45.582;5.298;2023-02-22T09:26:09;12.00;83.10
33827;DHT22;20128;45.582;5.298;2023-02-22T09:28:35;12.00;83.00
33827;DHT22;20128;45.582;5.298;2023-02-22T09:31:01;12.00;82.60
33827;DHT22;20128;45.582;5.298;2023-02-22T09:33:26;12.10;82.70
33827;DHT22;20128;45.582;5.298;2023-02-22T09:35:52;12.00;82.30
33827;DHT22;20128;45.582;5.298;2023-02-22T09:38:22;12.00;82.50
33827;DHT22;20128;45.582;5.298;2023-02-22T09:40:52;12.00;82.60
33827;DHT22;20128;45.582;5.298;2023-02-22T09:46:41;12.00;82.70
33827;DHT22;20128;45.582;5.298;2023-02-22T09:49:31;12.00;82.70
33827;DHT22;20128;45.582;5.298;2023-02-22T09:57:05;12.10;82.30
33827;DHT22;20128;45.582;5.298;2023-02-22T09:59:39;12.10;82.40
33827;DHT22;20128;45.582;5.298;2023-02-22T10:02:27;12.10;82.70
33827;DHT22;20128;45.582;5.298;2023-02-22T10:10:17;12.20;81.90
33827;DHT22;20128;45.582;5.298;2023-02-22T10:13:00;12.20;82.20
33827;DHT22;20128;45.582;5.298;2023-02-22T10:24:21;12.30;82.00
33827;DHT22;20128;45.582;5.298;2023-02-22T10:26:51;12.40;81.80
33827;DHT22;20128;45.582;5.298;2023-02-22T10:32:05;12.40;81.80
33827;DHT22;20128;45.582;5.298;2023-02-22T10:34:42;12.40;81.80
33827;DHT22;20128;45.582;5.298;2023-02-22T10:37:33;12.50;81.90
33827;DHT22;20128;45.582;5.298;2023-02-22T10:40:15;12.50;81.50
33827;DHT22;20128;45.582;5.298;2023-02-22T10:42:42;12.50;82.10
33827;DHT22;20128;45.582;5.298;2023-02-22T10:45:29;12.60;81.50
33827;DHT22;20128;45.582;5.298;2023-02-22T10:48:03;12.70;81.70
33827;DHT22;20128;45.582;5.298;2023-02-22T10:50:36;12.70;81.70
33827;DHT22;20128;45.582;5.298;2023-02-22T10:53:02;12.70;81.20
33827;DHT22;20128;45.582;5.298;2023-02-22T10:55:28;12.70;81.20
33827;DHT22;20128;45.582;5.298;2023-02-22T10:58:05;12.60;81.10
33827;DHT22;20128;45.582;5.298;2023-02-22T11:00:38;12.60;81.20
33827;DHT22;20128;45.582;5.298;2023-02-22T11:03:33;12.60;81.00
33827;DHT22;20128;45.582;5.298;2023-02-22T11:06:18;12.60;81.00
33827;DHT22;20128;45.582;5.298;2023-02-22T11:08:44;12.50;80.80
33827;DHT22;20128;45.582;5.298;2023-02-22T11:11:32;12.60;81.10
33827;DHT22;20128;45.582;5.298;2023-02-22T11:13:58;12.50;81.00
33827;DHT22;20128;45.582;5.298;2023-02-22T11:16:31;12.50;81.00
33827;DHT22;20128;45.582;5.298;2023-02-22T11:21:42;12.50;80.70
33827;DHT22;20128;45.582;5.298;2023-02-22T11:24:12;12.50;80.70
33827;DHT22;20128;45.582;5.298;2023-02-22T11:26:47;12.50;80.90
33827;DHT22;20128;45.582;5.298;2023-02-22T11:31:58;12.50;81.10
33827;DHT22;20128;45.582;5.298;2023-02-22T11:34:34;12.50;81.00
33827;DHT22;20128;45.582;5.298;2023-02-22T11:42:44;12.40;81.30
33827;DHT22;20128;45.582;5.298;2023-02-22T11:45:21;12.40;81.40
33827;DHT22;20128;45.582;5.298;2023-02-22T11:53:31;12.50;81.60
33827;DHT22;20128;45.582;5.298;2023-02-22T11:58:55;12.50;81.40
33827;DHT22;20128;45.582;5.298;2023-02-22T12:01:49;12.50;81.50
33827;DHT22;20128;45.582;5.298;2023-02-22T12:20:47;12.40;81.50
33827;DHT22;20128;45.582;5.298;2023-02-22T12:23:28;12.40;81.50
33827;DHT22;20128;45.582;5.298;2023-02-22T12:25:59;12.40;81.60
33827;DHT22;20128;45.582;5.298;2023-02-22T12:28:33;12.40;81.50
33827;DHT22;20128;45.582;5.298;2023-02-22T12:36:30;12.50;81.60
33827;DHT22;20128;45.582;5.298;2023-02-22T12:39:03;12.50;81.50
33827;DHT22;20128;45.582;5.298;2023-02-22T12:41:43;12.50;81.50
33827;DHT22;20128;45.582;5.298;2023-02-22T12:44:20;12.50;81.40
33827;DHT22;20128;45.582;5.298;2023-02-22T12:46:50;12.50;81.40
33827;DHT22;20128;45.582;5.298;2023-02-22T12:49:41;12.50;81.50
33827;DHT22;20128;45.582;5.298;2023-02-22T13:00:29;12.50;81.60
33827;DHT22;20128;45.582;5.298;2023-02-22T13:03:24;12.50;81.60
33827;DHT22;20128;45.582;5.298;2023-02-22T13:06:45;12.50;81.70
33827;DHT22;20128;45.582;5.298;2023-02-22T13:11:26;12.60;81.80
33827;DHT22;20128;45.582;5.298;2023-02-22T13:22:25;12.60;81.80
33827;DHT22;20128;45.582;5.298;2023-02-22T13:25:13;12.60;81.70
33827;DHT22;20128;45.582;5.298;2023-02-22T13:30:39;12.70;81.60
33827;DHT22;20128;45.582;5.298;2023-02-22T13:40:45;12.80;80.90
33827;DHT22;20128;45.582;5.298;2023-02-22T13:45:58;12.80;80.70
33827;DHT22;20128;45.582;5.298;2023-02-22T13:54:43;12.90;80.70
33827;DHT22;20128;45.582;5.298;2023-02-22T13:57:23;12.90;80.90
33827;DHT22;20128;45.582;5.298;2023-02-22T14:03:06;13.00;81.00
33827;DHT22;20128;45.582;5.298;2023-02-22T14:10:57;13.00;80.90
33827;DHT22;20128;45.582;5.298;2023-02-22T14:13:25;13.10;80.80
33827;DHT22;20128;45.582;5.298;2023-02-22T14:18:44;13.10;80.70
33827;DHT22;20128;45.582;5.298;2023-02-22T14:21:10;13.10;80.70
33827;DHT22;20128;45.582;5.298;2023-02-22T14:23:48;13.10;80.70
33827;DHT22;20128;45.582;5.298;2023-02-22T14:26:16;13.10;80.70
33827;DHT22;20128;45.582;5.298;2023-02-22T14:28:53;13.10;81.10
33827;DHT22;20128;45.582;5.298;2023-02-22T14:31:24;13.10;81.20
33827;DHT22;20128;45.582;5.298;2023-02-22T14:34:09;13.10;81.50
33827;DHT22;20128;45.582;5.298;2023-02-22T14:39:32;13.20;81.80
33827;DHT22;20128;45.582;5.298;2023-02-22T14:47:53;13.20;82.10
33827;DHT22;20128;45.582;5.298;2023-02-22T14:50:38;13.20;82.00
33827;DHT22;20128;45.582;5.298;2023-02-22T14:53:22;13.30;81.90
33827;DHT22;20128;45.582;5.298;2023-02-22T14:56:15;13.30;81.70
33827;DHT22;20128;45.582;5.298;2023-02-22T14:58:56;13.30;81.70
33827;DHT22;20128;45.582;5.298;2023-02-22T15:01:27;13.30;81.70
33827;DHT22;20128;45.582;5.298;2023-02-22T15:03:55;13.30;81.40
33827;DHT22;20128;45.582;5.298;2023-02-22T15:06:27;13.30;81.30
33827;DHT22;20128;45.582;5.298;2023-02-22T15:09:13;13.30;81.30
33827;DHT22;20128;45.582;5.298;2023-02-22T15:11:40;13.40;81.20
33827;DHT22;20128;45.582;5.298;2023-02-22T15:14:18;13.40;81.20
33827;DHT22;20128;45.582;5.298;2023-02-22T15:17:18;13.40;81.20
33827;DHT22;20128;45.582;5.298;2023-02-22T15:19:45;13.40;81.20
33827;DHT22;20128;45.582;5.298;2023-02-22T15:22:21;13.40;81.00
33827;DHT22;20128;45.582;5.298;2023-02-22T15:24:59;13.40;80.50
33827;DHT22;20128;45.582;5.298;2023-02-22T15:27:26;13.50;80.40
33827;DHT22;20128;45.582;5.298;2023-02-22T15:30:00;13.50;80.30
33827;DHT22;20128;45.582;5.298;2023-02-22T15:32:34;13.50;80.30
33827;DHT22;20128;45.582;5.298;2023-02-22T15:37:43;13.50;80.30
33827;DHT22;20128;45.582;5.298;2023-02-22T15:40:19;13.50;80.10
33827;DHT22;20128;45.582;5.298;2023-02-22T15:42:50;13.50;80.10
33827;DHT22;20128;45.582;5.298;2023-02-22T15:45:23;13.50;80.00
33827;DHT22;20128;45.582;5.298;2023-02-22T15:47:51;13.50;79.90
33827;DHT22;20128;45.582;5.298;2023-02-22T15:50:26;13.50;80.50
33827;DHT22;20128;45.582;5.298;2023-02-22T15:55:36;13.40;80.00
33827;DHT22;20128;45.582;5.298;2023-02-22T15:58:23;13.40;80.10
33827;DHT22;20128;45.582;5.298;2023-02-22T16:01:03;13.40;80.10
33827;DHT22;20128;45.582;5.298;2023-02-22T16:03:36;13.40;80.10
33827;DHT22;20128;45.582;5.298;2023-02-22T16:06:12;13.40;80.10
33827;DHT22;20128;45.582;5.298;2023-02-22T16:08:48;13.40;80.20
33827;DHT22;20128;45.582;5.298;2023-02-22T16:14:03;13.40;80.40
33827;DHT22;20128;45.582;5.298;2023-02-22T16:16:34;13.40;80.50
33827;DHT22;20128;45.582;5.298;2023-02-22T16:19:26;13.40;80.50
33827;DHT22;20128;45.582;5.298;2023-02-22T16:21:54;13.40;80.90
33827;DHT22;20128;45.582;5.298;2023-02-22T16:24:34;13.40;81.10
33827;DHT22;20128;45.582;5.298;2023-02-22T16:27:21;13.40;81.20
33827;DHT22;20128;45.582;5.298;2023-02-22T16:32:30;13.40;81.40
33827;DHT22;20128;45.582;5.298;2023-02-22T16:34:55;13.40;81.30
33827;DHT22;20128;45.582;5.298;2023-02-22T16:37:22;13.40;81.40
33827;DHT22;20128;45.582;5.298;2023-02-22T16:39:48;13.40;81.50
33827;DHT22;20128;45.582;5.298;2023-02-22T16:42:17;13.40;81.50
33827;DHT22;20128;45.582;5.298;2023-02-22T16:44:51;13.40;81.70
33827;DHT22;20128;45.582;5.298;2023-02-22T16:47:17;13.30;81.70
33827;DHT22;20128;45.582;5.298;2023-02-22T16:49:43;13.40;81.70
33827;DHT22;20128;45.582;5.298;2023-02-22T16:52:09;13.30;81.70
33827;DHT22;20128;45.582;5.298;2023-02-22T16:54:43;13.30;81.80
33827;DHT22;20128;45.582;5.298;2023-02-22T16:57:20;13.30;81.60
33827;DHT22;20128;45.582;5.298;2023-02-22T16:59:46;13.30;81.50
33827;DHT22;20128;45.582;5.298;2023-02-22T17:02:15;13.30;81.60
33827;DHT22;20128;45.582;5.298;2023-02-22T17:04:41;13.30;81.60
33827;DHT22;20128;45.582;5.298;2023-02-22T17:07:11;13.30;81.60
33827;DHT22;20128;45.582;5.298;2023-02-22T17:09:37;13.30;81.70
33827;DHT22;20128;45.582;5.298;2023-02-22T17:12:04;13.30;81.80
33827;DHT22;20128;45.582;5.298;2023-02-22T17:14:32;13.20;81.60
33827;DHT22;20128;45.582;5.298;2023-02-22T17:16:58;13.20;81.50
33827;DHT22;20128;45.582;5.298;2023-02-22T17:19:24;13.20;81.40
33827;DHT22;20128;45.582;5.298;2023-02-22T17:21:50;13.20;81.30
33827;DHT22;20128;45.582;5.298;2023-02-22T17:24:22;13.20;81.40
33827;DHT22;20128;45.582;5.298;2023-02-22T17:26:49;13.20;81.30
33827;DHT22;20128;45.582;5.298;2023-02-22T17:29:15;13.10;81.30
33827;DHT22;20128;45.582;5.298;2023-02-22T17:31:42;13.10;81.50
33827;DHT22;20128;45.582;5.298;2023-02-22T17:34:08;13.10;81.60
33827;DHT22;20128;45.582;5.298;2023-02-22T17:36:34;13.10;81.70
33827;DHT22;20128;45.582;5.298;2023-02-22T17:39:03;13.10;82.50
33827;DHT22;20128;45.582;5.298;2023-02-22T17:41:29;13.00;82.20
33827;DHT22;20128;45.582;5.298;2023-02-22T17:43:55;13.00;82.40
33827;DHT22;20128;45.582;5.298;2023-02-22T17:46:24;13.00;82.70
33827;DHT22;20128;45.582;5.298;2023-02-22T17:48:50;13.00;83.20
33827;DHT22;20128;45.582;5.298;2023-02-22T17:51:19;13.00;83.50
33827;DHT22;20128;45.582;5.298;2023-02-22T17:53:45;12.90;83.80
33827;DHT22;20128;45.582;5.298;2023-02-22T17:56:14;12.90;84.20
33827;DHT22;20128;45.582;5.298;2023-02-22T17:58:49;12.90;84.60
33827;DHT22;20128;45.582;5.298;2023-02-22T18:03:50;12.80;85.20
33827;DHT22;20128;45.582;5.298;2023-02-22T18:06:18;12.80;85.40
33827;DHT22;20128;45.582;5.298;2023-02-22T18:08:46;12.80;85.90
33827;DHT22;20128;45.582;5.298;2023-02-22T18:11:18;12.80;86.40
33827;DHT22;20128;45.582;5.298;2023-02-22T18:13:45;12.70;87.10
33827;DHT22;20128;45.582;5.298;2023-02-22T18:16:11;12.70;87.00
33827;DHT22;20128;45.582;5.298;2023-02-22T18:18:36;12.70;87.20
33827;DHT22;20128;45.582;5.298;2023-02-22T18:21:02;12.70;87.30
33827;DHT22;20128;45.582;5.298;2023-02-22T18:23:30;12.60;87.50
33827;DHT22;20128;45.582;5.298;2023-02-22T18:25:57;12.60;88.00
33827;DHT22;20128;45.582;5.298;2023-02-22T18:28:23;12.60;87.90
33827;DHT22;20128;45.582;5.298;2023-02-22T18:30:49;12.50;88.10
33827;DHT22;20128;45.582;5.298;2023-02-22T18:33:16;12.50;88.40
33827;DHT22;20128;45.582;5.298;2023-02-22T18:35:44;12.50;88.50
33827;DHT22;20128;45.582;5.298;2023-02-22T18:38:12;12.50;88.60
33827;DHT22;20128;45.582;5.298;2023-02-22T18:41:05;12.40;88.80